Time;durP1;ratioP1;P1;durP2;ratioP2;P2;SDS_P1;SDS_P2;PMS_P1;PMS_P2;Temp;Humidity;BMP_temperature;BMP_pressure;BME280_temperature;BME280_humidity;BME280_pressure;Samples;Min_cycle;Max_cycle;Signal;HPM_P1;HPM_P2
2021/12/17 00:01:05;;;;;;;27.63;17.63;;;12.70;76.80;;;;;;5015253;28;20046;-78
2021/12/17 00:03:40;;;;;;;23.65;16.73;;;12.60;76.80;;;;;;4998384;28;20383;-78
2021/12/17 00:08:41;;;;;;;23.20;15.77;;;12.60;76.70;;;;;;4978225;28;20053;-78
2021/12/17 00:11:10;;;;;;;21.38;16.38;;;12.60;76.70;;;;;;5002551;28;20060;-78
2021/12/17 00:13:38;;;;;;;23.25;15.80;;;12.60;76.70;;;;;;5009333;28;20048;-78
2021/12/17 00:16:14;;;;;;;23.55;16.05;;;12.60;76.70;;;;;;4993854;28;20061;-78
2021/12/17 00:49:00;;;;;;;26.00;17.92;;;12.60;77.40;;;;;;5009929;28;20042;-78
2021/12/17 00:54:02;;;;;;;27.52;17.92;;;12.60;76.80;;;;;;4986583;28;20042;-78
2021/12/17 00:56:28;;;;;;;26.42;17.65;;;12.60;76.90;;;;;;4973440;28;20050;-78
2021/12/17 00:58:56;;;;;;;30.98;19.88;;;12.60;76.90;;;;;;4992580;28;20505;-78
2021/12/17 01:01:24;;;;;;;26.90;19.02;;;12.60;76.90;;;;;;5007629;28;20046;-79
2021/12/17 01:03:55;;;;;;;27.77;19.35;;;12.60;76.90;;;;;;4995937;28;20039;-78
2021/12/17 01:06:23;;;;;;;29.08;19.67;;;12.70;76.90;;;;;;5003064;28;20062;-78
2021/12/17 01:08:51;;;;;;;28.08;19.70;;;12.60;76.90;;;;;;5002511;28;20042;-78
2021/12/17 01:11:22;;;;;;;29.58;20.60;;;12.60;76.90;;;;;;4988546;28;20081;-78
2021/12/17 01:14:19;;;;;;;34.67;21.80;;;12.60;77.00;;;;;;4965800;28;20058;-78
2021/12/17 01:16:56;;;;;;;31.27;21.25;;;12.70;77.10;;;;;;5004091;28;20049;-78
2021/12/17 01:25:40;;;;;;;28.75;19.33;;;12.60;77.10;;;;;;4980325;28;20601;-78
2021/12/17 01:35:30;;;;;;;25.13;16.88;;;12.60;76.90;;;;;;4988493;28;20164;-78
2021/12/17 01:43:04;;;;;;;29.67;20.13;;;12.60;77.00;;;;;;4997096;28;19922;-78
2021/12/17 01:45:36;;;;;;;34.50;21.92;;;12.60;76.60;;;;;;4991994;28;20618;-78
2021/12/17 01:48:08;;;;;;;31.85;21.10;;;12.60;76.70;;;;;;5002977;28;20209;-78
2021/12/17 02:01:33;;;;;;;33.40;22.02;;;12.60;77.00;;;;;;4986773;28;20125;-78
2021/12/17 02:04:04;;;;;;;29.98;21.08;;;12.60;77.00;;;;;;4993042;28;20068;-78
2021/12/17 02:06:35;;;;;;;34.08;21.92;;;12.60;77.00;;;;;;4994242;28;20070;-78
2021/12/17 02:09:12;;;;;;;32.53;20.75;;;12.60;77.00;;;;;;4990962;28;20052;-79
2021/12/17 02:20:12;;;;;;;30.45;20.50;;;12.60;77.10;;;;;;4990437;28;20061;-78
2021/12/17 02:31:39;;;;;;;35.38;22.10;;;12.60;77.00;;;;;;4997476;28;20582;-78
2021/12/17 02:33:35;;;;;;;34.08;23.25;;;12.70;77.10;;;;;;4990368;28;20042;-78
2021/12/17 02:36:02;;;;;;;36.85;23.05;;;12.70;77.10;;;;;;4989240;28;20045;-77
2021/12/17 02:38:35;;;;;;;36.78;23.48;;;12.60;77.10;;;;;;4998055;28;20041;-78
2021/12/17 02:47:14;;;;;;;32.70;21.90;;;12.60;77.00;;;;;;4981235;28;20078;-78
2021/12/17 02:49:44;;;;;;;39.28;23.77;;;12.70;77.10;;;;;;4999436;28;20134;-77
2021/12/17 02:52:13;;;;;;;34.05;21.95;;;12.60;77.00;;;;;;5006463;28;20060;-78
2021/12/17 02:54:40;;;;;;;32.90;21.55;;;12.70;77.00;;;;;;5004226;28;20052;-78
2021/12/17 02:57:11;;;;;;;36.88;22.95;;;12.50;77.00;;;;;;4976957;28;20054;-77
2021/12/17 02:59:38;;;;;;;38.05;23.45;;;12.60;77.10;;;;;;5006541;28;20045;-78
2021/12/17 03:02:07;;;;;;;42.72;23.42;;;12.50;77.00;;;;;;5006611;28;20048;-78
2021/12/17 03:04:38;;;;;;;34.35;23.02;;;12.60;77.10;;;;;;4997667;28;20045;-78
2021/12/17 03:07:05;;;;;;;33.88;21.42;;;12.60;77.00;;;;;;4960675;28;20055;-78
2021/12/17 03:09:59;;;;;;;35.78;22.55;;;12.60;77.00;;;;;;4984595;28;20068;-78
2021/12/17 03:12:36;;;;;;;37.30;22.52;;;12.50;76.90;;;;;;5007412;28;20532;-78
2021/12/17 03:23:39;;;;;;;41.58;23.65;;;12.50;76.90;;;;;;5000173;28;20042;-78
2021/12/17 03:26:16;;;;;;;33.90;21.27;;;12.50;77.00;;;;;;4995130;28;20038;-78
2021/12/17 03:28:46;;;;;;;36.40;22.08;;;12.50;77.10;;;;;;5007163;28;20046;-78
2021/12/17 03:31:14;;;;;;;38.33;20.63;;;12.50;77.00;;;;;;5006395;28;20045;-78
2021/12/17 03:33:44;;;;;;;33.25;19.67;;;12.50;77.00;;;;;;4968982;28;20820;-78
2021/12/17 03:36:14;;;;;;;33.05;21.20;;;12.50;77.00;;;;;;4987168;28;20045;-78
2021/12/17 03:38:44;;;;;;;36.25;20.58;;;12.50;77.00;;;;;;5005978;28;20038;-78
2021/12/17 03:43:48;;;;;;;25.02;17.38;;;12.40;76.90;;;;;;4979313;28;20098;-78
2021/12/17 03:46:17;;;;;;;33.00;19.85;;;12.60;77.00;;;;;;4999669;28;20052;-78
2021/12/17 03:48:44;;;;;;;34.08;18.98;;;12.50;77.00;;;;;;5007211;28;20050;-78
2021/12/17 03:51:14;;;;;;;36.47;19.83;;;12.40;77.60;;;;;;4987908;28;20053;-78
2021/12/17 03:53:56;;;;;;;35.70;19.98;;;12.40;77.00;;;;;;4967740;28;20069;-78
2021/12/17 03:56:26;;;;;;;42.90;19.95;;;12.50;77.20;;;;;;5020757;28;20124;-77
2021/12/17 03:58:54;;;;;;;52.35;22.80;;;12.40;77.10;;;;;;5007797;28;20060;-78
2021/12/17 04:01:24;;;;;;;31.92;19.25;;;12.40;77.20;;;;;;4999399;28;20051;-78
2021/12/17 04:03:52;;;;;;;60.65;19.48;;;12.40;77.20;;;;;;4992029;28;20142;-78
2021/12/17 04:06:25;;;;;;;38.38;19.33;;;12.40;77.20;;;;;;4989710;28;20129;-78
2021/12/17 04:09:04;;;;;;;42.35;18.33;;;12.40;77.30;;;;;;4994200;28;20046;-78
2021/12/17 04:12:00;;;;;;;32.00;16.95;;;12.40;77.30;;;;;;4989495;28;20046;-78
2021/12/17 04:14:46;;;;;;;40.97;17.95;;;12.40;77.30;;;;;;5001803;28;20046;-78
2021/12/17 04:17:21;;;;;;;42.03;17.67;;;12.30;77.30;;;;;;5006637;28;20061;-78
2021/12/17 04:19:48;;;;;;;42.28;16.95;;;12.30;77.30;;;;;;5007217;28;20145;-78
2021/12/17 04:22:16;;;;;;;30.40;17.15;;;12.30;77.30;;;;;;4985537;28;20102;-78
2021/12/17 04:24:43;;;;;;;36.63;15.85;;;12.30;77.30;;;;;;5005348;28;20569;-77
2021/12/17 04:27:10;;;;;;;31.20;15.52;;;12.30;77.30;;;;;;4963026;28;20057;-78
2021/12/17 04:29:42;;;;;;;33.53;16.48;;;12.30;77.20;;;;;;4983803;28;20597;-78
2021/12/17 04:32:10;;;;;;;;;;;12.50;77.40;;;;;;4986902;28;20446;-78
2021/12/17 04:34:37;;;;;;;38.42;16.13;;;12.30;77.60;;;;;;4974890;28;19943;-77
2021/12/17 04:37:06;;;;;;;52.85;19.48;;;12.20;77.20;;;;;;4964675;28;20129;-78
2021/12/17 04:39:53;;;;;;;43.53;17.25;;;12.20;77.10;;;;;;4984268;28;20201;-77
2021/12/17 04:42:36;;;;;;;40.35;16.65;;;12.20;77.00;;;;;;4971321;28;20042;-77
2021/12/17 04:45:05;;;;;;;72.93;19.13;;;12.20;77.00;;;;;;4977783;28;20066;-78
2021/12/17 04:58:47;;;;;;;34.65;16.00;;;11.90;77.40;;;;;;5000877;28;20047;-78
2021/12/17 05:01:15;;;;;;;27.27;15.95;;;12.00;77.50;;;;;;4985277;28;20685;-78
2021/12/17 05:03:45;;;;;;;34.78;16.65;;;11.90;77.60;;;;;;4981484;28;20039;-78
2021/12/17 05:06:18;;;;;;;43.90;17.65;;;11.90;77.70;;;;;;4980310;28;20071;-78
2021/12/17 05:08:59;;;;;;;35.83;17.08;;;12.00;77.70;;;;;;4976520;28;20053;-78
2021/12/17 05:19:49;;;;;;;32.20;18.08;;;11.90;77.70;;;;;;4999722;28;20128;-78
2021/12/17 05:22:17;;;;;;;32.85;18.02;;;11.90;77.70;;;;;;5010397;28;20065;-78
2021/12/17 05:24:44;;;;;;;28.73;16.73;;;12.00;77.80;;;;;;4992571;28;20050;-78
2021/12/17 05:27:12;;;;;;;25.65;15.43;;;11.90;77.80;;;;;;4994168;28;20051;-78
2021/12/17 05:30:00;;;;;;;27.85;16.05;;;11.80;78.00;;;;;;5006290;28;20062;-78
2021/12/17 05:32:27;;;;;;;27.70;14.95;;;11.80;78.00;;;;;;5000446;28;20469;-78
2021/12/17 05:34:59;;;;;;;30.85;17.13;;;11.80;78.00;;;;;;4990279;28;20506;-78
2021/12/17 05:37:27;;;;;;;27.00;14.10;;;11.80;77.90;;;;;;4989562;28;20037;-78
2021/12/17 05:39:54;;;;;;;26.98;15.05;;;11.80;77.90;;;;;;5009523;28;20568;-78
2021/12/17 05:42:23;;;;;;;23.08;13.77;;;11.80;77.90;;;;;;5007810;28;20149;-78
2021/12/17 05:45:22;;;;;;;29.25;16.45;;;11.80;77.80;;;;;;4991124;28;20619;-78
2021/12/17 05:47:49;;;;;;;27.08;15.25;;;11.80;77.70;;;;;;4987939;28;20065;-78
2021/12/17 05:50:16;;;;;;;30.08;15.07;;;11.80;77.70;;;;;;5007621;28;20052;-78
2021/12/17 05:52:43;;;;;;;27.85;15.80;;;11.80;77.70;;;;;;5010516;23;20508;-45
2021/12/17 05:55:10;;;;;;;29.02;16.40;;;11.80;77.70;;;;;;5028995;28;20092;-46
2021/12/17 05:57:39;;;;;;;29.02;15.60;;;11.80;77.60;;;;;;5026041;28;20493;-45
2021/12/17 06:00:07;;;;;;;29.02;16.23;;;11.80;77.60;;;;;;5047276;28;20037;-45
2021/12/17 06:02:41;;;;;;;26.77;16.17;;;11.80;77.60;;;;;;5049382;28;20045;-45
2021/12/17 06:05:14;;;;;;;28.02;15.75;;;11.80;77.50;;;;;;5020780;28;20566;-46
2021/12/17 06:07:44;;;;;;;26.90;14.75;;;11.80;77.60;;;;;;5011678;28;20126;-45
2021/12/17 06:10:13;;;;;;;26.45;14.98;;;11.80;77.60;;;;;;5021048;28;20080;-44
2021/12/17 06:12:45;;;;;;;27.77;15.45;;;11.80;78.10;;;;;;5007946;28;20441;-44
2021/12/17 06:15:16;;;;;;;27.05;14.95;;;11.80;77.40;;;;;;5030322;28;20168;-45
2021/12/17 06:17:44;;;;;;;26.08;15.30;;;11.80;77.30;;;;;;5023007;28;20044;-47
2021/12/17 06:20:19;;;;;;;27.92;16.00;;;11.90;77.30;;;;;;5032481;28;20515;-46
2021/12/17 06:22:49;;;;;;;29.63;16.52;;;11.80;77.30;;;;;;5024062;28;20045;-44
2021/12/17 06:25:17;;;;;;;30.38;16.13;;;11.90;77.40;;;;;;5015548;28;20048;-46
2021/12/17 06:27:45;;;;;;;30.58;15.45;;;11.80;77.40;;;;;;5022390;28;20516;-44
2021/12/17 06:30:14;;;;;;;27.30;15.05;;;11.80;77.30;;;;;;5007248;28;20050;-47
2021/12/17 06:32:42;;;;;;;24.80;15.05;;;11.80;77.30;;;;;;5018480;28;20136;-46
2021/12/17 06:35:10;;;;;;;29.60;16.60;;;11.80;77.30;;;;;;5023598;28;20049;-45
2021/12/17 06:37:40;;;;;;;28.67;15.40;;;11.80;77.30;;;;;;5041567;28;20121;-45
2021/12/17 06:40:12;;;;;;;26.83;15.32;;;11.80;77.20;;;;;;5020048;28;20050;-48
2021/12/17 06:42:40;;;;;;;24.55;15.77;;;11.80;77.20;;;;;;5018652;28;20037;-46
2021/12/17 06:45:18;;;;;;;25.65;14.25;;;11.80;77.20;;;;;;5023568;28;20094;-47
2021/12/17 06:47:53;;;;;;;22.33;14.25;;;11.80;77.20;;;;;;5029755;28;20109;-46
2021/12/17 07:09:17;;;;;;;22.50;13.10;;;11.80;77.20;;;;;;5026329;28;20052;-45
2021/12/17 07:17:07;;;;;;;23.50;13.68;;;11.80;77.30;;;;;;5016127;28;20044;-49
2021/12/17 07:17:36;;;;;;;23.45;13.38;;;11.80;77.50;;;;;;5028777;28;20048;-44
2021/12/17 07:33:39;;;;;;;25.27;15.00;;;11.80;77.00;;;;;;5007002;28;20145;-44
2021/12/17 07:36:36;;;;;;;22.45;13.25;;;11.80;77.00;;;;;;5005115;28;20584;-48
2021/12/17 07:39:04;;;;;;;25.92;14.45;;;11.80;77.20;;;;;;5008854;28;20050;-48
2021/12/17 07:41:49;;;;;;;24.50;14.48;;;11.80;77.20;;;;;;5023466;28;20524;-49
2021/12/17 07:44:44;;;;;;;23.88;14.77;;;11.80;77.20;;;;;;5011249;28;20074;-48
2021/12/17 07:47:27;;;;;;;27.40;15.07;;;11.80;77.20;;;;;;5004722;28;20049;-48
2021/12/17 07:50:25;;;;;;;26.08;16.00;;;11.80;77.20;;;;;;5032040;28;20053;-49
2021/12/17 07:53:03;;;;;;;26.75;15.07;;;11.80;77.20;;;;;;5019789;28;20096;-48
2021/12/17 07:55:38;;;;;;;27.00;14.60;;;11.80;77.20;;;;;;5004909;28;20041;-46
2021/12/17 07:58:08;;;;;;;28.65;14.48;;;11.80;77.30;;;;;;5011612;28;20046;-49
2021/12/17 08:00:38;;;;;;;27.15;15.57;;;11.80;77.40;;;;;;5025446;28;20040;-47
2021/12/17 08:03:05;;;;;;;27.73;15.60;;;11.70;77.30;;;;;;5013710;28;20093;-48
2021/12/17 08:05:56;;;;;;;24.30;15.07;;;11.80;77.40;;;;;;4989955;28;20046;-49
2021/12/17 08:08:23;;;;;;;27.63;14.98;;;11.80;77.50;;;;;;5012730;28;20049;-48
2021/12/17 08:11:02;;;;;;;24.35;14.27;;;11.80;77.40;;;;;;5020975;28;20077;-47
2021/12/17 08:13:34;;;;;;;29.58;14.75;;;11.80;77.40;;;;;;5027364;28;20041;-46
2021/12/17 08:18:46;;;;;;;26.55;14.25;;;11.80;77.60;;;;;;5017326;28;20076;-49
2021/12/17 08:24:37;;;;;;;28.42;15.27;;;11.80;77.40;;;;;;5017319;28;20102;-49
2021/12/17 08:27:47;;;;;;;28.05;15.65;;;11.80;77.20;;;;;;5001073;28;20111;-49
2021/12/17 08:29:52;;;;;;;29.08;15.63;;;11.80;77.10;;;;;;5015866;28;20072;-46
2021/12/17 08:32:20;;;;;;;28.55;14.40;;;11.80;77.10;;;;;;5017995;28;20049;-49
2021/12/17 08:34:52;;;;;;;26.33;15.27;;;11.80;77.20;;;;;;5024103;28;20044;-47
2021/12/17 08:37:19;;;;;;;27.90;14.20;;;11.80;77.30;;;;;;5003466;28;20050;-49
2021/12/17 08:39:49;;;;;;;24.30;14.10;;;11.80;77.40;;;;;;5014721;28;20043;-46
2021/12/17 08:42:36;;;;;;;33.45;16.35;;;11.80;77.50;;;;;;5025905;28;20124;-49
2021/12/17 08:45:09;;;;;;;27.45;13.10;;;11.90;77.60;;;;;;5009665;28;20310;-45
2021/12/17 08:47:47;;;;;;;30.98;14.55;;;11.80;77.60;;;;;;5023342;28;20053;-49
2021/12/17 08:50:24;;;;;;;29.35;15.55;;;11.90;77.60;;;;;;5010863;28;20045;-46
2021/12/17 08:52:55;;;;;;;26.80;14.63;;;11.90;77.60;;;;;;4998881;28;20106;-47
2021/12/17 08:55:21;;;;;;;30.70;14.43;;;11.90;77.40;;;;;;5016805;28;20508;-47
2021/12/17 08:57:48;;;;;;;32.40;15.50;;;11.90;77.30;;;;;;5010385;28;20520;-45
2021/12/17 09:00:15;;;;;;;31.60;15.77;;;11.90;77.30;;;;;;5011338;28;20042;-48
2021/12/17 09:03:09;;;;;;;26.38;15.70;;;11.90;77.30;;;;;;5025499;28;20053;-49
2021/12/17 09:05:58;;;;;;;32.40;16.23;;;11.90;77.30;;;;;;5004906;28;20041;-47
2021/12/17 09:08:31;;;;;;;27.85;14.80;;;11.90;77.20;;;;;;5012397;28;20457;-45
2021/12/17 09:10:59;;;;;;;32.40;14.95;;;11.90;77.30;;;;;;5024350;28;20120;-45
2021/12/17 09:13:51;;;;;;;31.70;15.93;;;11.90;77.30;;;;;;5025180;28;20045;-48
2021/12/17 09:16:20;;;;;;;29.98;15.32;;;11.90;77.30;;;;;;5005832;28;20042;-46
2021/12/17 09:18:52;;;;;;;31.08;15.38;;;11.90;77.30;;;;;;5010141;28;20038;-48
2021/12/17 09:21:33;;;;;;;32.20;14.85;;;11.90;77.40;;;;;;5006027;28;20453;-49
2021/12/17 09:24:11;;;;;;;32.83;14.23;;;12.00;77.50;;;;;;5020252;28;20045;-48
2021/12/17 09:26:56;;;;;;;30.05;15.15;;;12.00;77.50;;;;;;5017794;28;20057;-45
2021/12/17 09:29:30;;;;;;;39.85;14.77;;;12.00;77.60;;;;;;5011416;28;20052;-48
2021/12/17 09:31:57;;;;;;;43.65;16.20;;;12.00;77.70;;;;;;5018472;28;20037;-49
2021/12/17 09:34:24;;;;;;;32.38;14.23;;;12.00;77.60;;;;;;5039154;28;20083;-48
2021/12/17 09:36:51;;;;;;;36.33;15.52;;;12.00;77.60;;;;;;5016042;28;20037;-45
2021/12/17 09:39:18;;;;;;;37.33;16.23;;;12.00;77.70;;;;;;5022835;28;20041;-48
2021/12/17 09:41:50;;;;;;;33.55;14.80;;;12.00;77.60;;;;;;5024026;28;20045;-49
2021/12/17 09:44:18;;;;;;;35.60;14.65;;;12.00;77.60;;;;;;5041385;28;20454;-46
2021/12/17 09:46:47;;;;;;;35.63;15.18;;;12.10;77.60;;;;;;5024154;28;20033;-48
2021/12/17 09:49:18;;;;;;;29.08;14.73;;;12.10;77.80;;;;;;5030263;28;20103;-46
2021/12/17 09:51:47;;;;;;;31.25;15.43;;;12.10;77.80;;;;;;5019526;28;20038;-45
2021/12/17 09:54:14;;;;;;;31.70;16.98;;;12.10;77.80;;;;;;5030125;28;20042;-48
2021/12/17 09:56:41;;;;;;;42.92;17.42;;;12.10;77.80;;;;;;5019366;28;20045;-45
2021/12/17 09:59:08;;;;;;;33.83;16.88;;;12.20;77.80;;;;;;5028054;28;20045;-46
2021/12/17 10:01:39;;;;;;;30.20;15.88;;;12.20;77.90;;;;;;5022980;28;20099;-45
2021/12/17 10:04:39;;;;;;;34.00;15.95;;;12.20;77.80;;;;;;5029706;28;20045;-49
2021/12/17 10:07:24;;;;;;;28.05;14.52;;;12.20;77.70;;;;;;5009851;28;20115;-45
2021/12/17 10:09:54;;;;;;;33.17;17.85;;;12.30;77.70;;;;;;5034168;28;20102;-49
2021/12/17 10:12:30;;;;;;;40.28;19.15;;;12.30;77.60;;;;;;5019117;28;20038;-45
2021/12/17 10:15:17;;;;;;;36.15;17.58;;;12.30;77.50;;;;;;5015818;28;20569;-45
2021/12/17 10:18:01;;;;;;;38.67;17.10;;;12.30;77.40;;;;;;5016634;28;20037;-45
2021/12/17 10:20:58;;;;;;;34.17;17.10;;;12.30;77.50;;;;;;5029573;28;20416;-46
2021/12/17 10:23:26;;;;;;;37.20;15.98;;;12.40;77.40;;;;;;5022725;28;20057;-47
2021/12/17 10:25:54;;;;;;;31.00;14.65;;;12.40;78.00;;;;;;5021458;28;21119;-45
2021/12/17 10:28:21;;;;;;;36.20;16.55;;;12.40;77.30;;;;;;5027074;28;20112;-46
2021/12/17 10:30:50;;;;;;;31.40;15.18;;;12.20;77.10;;;;;;5037734;28;20103;-45
2021/12/17 10:33:19;;;;;;;35.25;15.30;;;12.40;77.20;;;;;;5026279;28;20574;-45
2021/12/17 10:35:49;;;;;;;32.60;15.05;;;12.40;77.20;;;;;;5019537;28;20142;-44
2021/12/17 10:38:23;;;;;;;31.48;14.95;;;12.40;77.20;;;;;;5019854;28;20735;-47
2021/12/17 10:41:12;;;;;;;30.77;14.52;;;12.50;77.10;;;;;;5019885;28;20042;-45
2021/12/17 10:43:48;;;;;;;30.10;14.10;;;12.50;77.00;;;;;;5028701;28;20059;-46
2021/12/17 10:46:25;;;;;;;31.25;13.77;;;12.50;76.90;;;;;;5021353;28;20038;-46
2021/12/17 10:49:02;;;;;;;28.73;13.88;;;12.50;77.00;;;;;;5019844;28;20048;-46
2021/12/17 10:54:16;;;;;;;33.80;13.38;;;12.50;76.90;;;;;;5025213;28;20044;-46
2021/12/17 10:56:47;;;;;;;28.23;13.88;;;12.50;76.90;;;;;;5027817;28;20045;-47
2021/12/17 10:59:18;;;;;;;27.55;13.77;;;12.60;76.80;;;;;;5024216;28;20108;-46
2021/12/17 11:01:49;;;;;;;29.02;13.35;;;12.50;76.70;;;;;;5023533;28;20116;-45
2021/12/17 11:04:27;;;;;;;28.23;13.20;;;12.50;76.70;;;;;;5031764;28;20068;-45
2021/12/17 11:07:03;;;;;;;26.92;13.13;;;12.60;76.70;;;;;;5124904;22;20045;-75
2021/12/17 11:09:54;;;;;;;26.15;12.00;;;12.60;76.70;;;;;;5035085;28;20180;-75
2021/12/17 11:12:28;;;;;;;19.08;11.20;;;12.60;76.60;;;;;;5018055;28;20053;-75
2021/12/17 11:15:19;;;;;;;21.90;10.73;;;12.60;76.60;;;;;;5006578;28;20168;-75
2021/12/17 11:18:08;;;;;;;21.77;11.38;;;12.60;76.50;;;;;;5011477;28;20493;-76
2021/12/17 11:20:37;;;;;;;26.10;11.40;;;12.60;76.50;;;;;;5035970;28;20048;-75
2021/12/17 11:23:09;;;;;;;22.77;12.10;;;12.60;76.60;;;;;;5007886;28;20048;-75
2021/12/17 11:25:38;;;;;;;23.02;12.27;;;12.60;76.60;;;;;;4996129;28;20037;-75
2021/12/17 11:28:07;;;;;;;24.77;12.52;;;12.60;76.50;;;;;;5017821;28;20219;-75
2021/12/17 11:30:38;;;;;;;25.58;12.93;;;12.60;76.50;;;;;;4998603;28;20053;-75
2021/12/17 11:33:05;;;;;;;28.13;13.02;;;12.60;76.70;;;;;;5007170;28;20057;-75
2021/12/17 11:35:36;;;;;;;23.80;11.88;;;12.60;76.60;;;;;;5000978;28;20136;-75
2021/12/17 11:38:31;;;;;;;25.48;13.63;;;12.60;76.60;;;;;;5033755;28;20041;-75
2021/12/17 11:41:14;;;;;;;24.23;11.38;;;12.60;76.50;;;;;;5012435;28;20053;-75
2021/12/17 11:43:51;;;;;;;25.58;12.48;;;12.60;76.60;;;;;;5011327;28;20386;-75
2021/12/17 11:46:23;;;;;;;23.27;12.57;;;12.60;76.60;;;;;;5013329;28;20042;-75
2021/12/17 11:48:54;;;;;;;24.85;12.85;;;12.60;76.60;;;;;;5009379;28;20564;-75
2021/12/17 11:51:26;;;;;;;22.73;14.10;;;12.60;76.60;;;;;;5009635;28;20060;-75
2021/12/17 11:54:01;;;;;;;29.88;14.23;;;12.70;76.60;;;;;;5029978;23;20046;-43
2021/12/17 11:56:44;;;;;;;22.48;12.50;;;12.60;76.60;;;;;;5028557;28;20045;-45
2021/12/17 11:59:27;;;;;;;28.85;16.02;;;12.70;76.70;;;;;;5013869;28;20052;-42
2021/12/17 12:02:05;;;;;;;31.52;16.88;;;12.70;76.60;;;;;;5020428;28;20037;-43
2021/12/17 12:04:36;;;;;;;26.50;16.20;;;12.70;76.50;;;;;;5021124;28;20044;-43
2021/12/17 12:07:14;;;;;;;29.63;15.82;;;12.70;76.50;;;;;;5016124;28;20037;-44
2021/12/17 12:10:02;;;;;;;29.70;17.42;;;12.70;76.50;;;;;;5018475;28;20049;-45
2021/12/17 12:12:34;;;;;;;27.08;15.55;;;12.70;76.50;;;;;;5031387;28;20570;-44
2021/12/17 12:15:17;;;;;;;31.30;16.67;;;12.70;76.40;;;;;;5032463;28;20471;-43
2021/12/17 12:18:04;;;;;;;30.55;17.30;;;12.70;76.40;;;;;;5030902;28;20041;-45
2021/12/17 12:20:55;;;;;;;33.75;17.95;;;12.70;76.40;;;;;;5032883;28;20038;-43
2021/12/17 12:23:27;;;;;;;33.70;18.52;;;12.70;76.30;;;;;;5032166;28;20038;-42
2021/12/17 12:28:53;;;;;;;34.85;18.38;;;12.70;76.40;;;;;;5024400;28;20049;-43
2021/12/17 12:31:25;;;;;;;37.22;19.25;;;12.70;76.40;;;;;;5025087;28;20073;-42
2021/12/17 12:34:10;;;;;;;26.80;15.40;;;12.70;76.50;;;;;;5027864;28;20048;-43
2021/12/17 12:37:08;;;;;;;33.20;17.90;;;12.70;76.70;;;;;;5019230;28;20066;-45
2021/12/17 12:39:49;;;;;;;33.22;18.00;;;12.70;76.70;;;;;;5007592;28;20041;-43
2021/12/17 12:42:20;;;;;;;31.33;16.63;;;12.70;76.70;;;;;;5022134;28;20560;-42
2021/12/17 12:44:49;;;;;;;27.27;16.42;;;12.70;76.70;;;;;;5026596;28;20045;-43
2021/12/17 12:47:31;;;;;;;28.35;16.65;;;12.70;76.60;;;;;;4986183;28;20038;-43
2021/12/17 12:50:04;;;;;;;26.08;14.93;;;12.70;76.50;;;;;;4990336;28;20073;-45
2021/12/17 12:52:31;;;;;;;24.40;14.25;;;12.70;76.40;;;;;;4990462;28;20100;-43
2021/12/17 12:55:20;;;;;;;26.45;13.52;;;12.70;76.30;;;;;;5009360;28;20092;-44
2021/12/17 12:57:48;;;;;;;26.92;14.80;;;12.70;76.40;;;;;;5003570;28;20042;-43
2021/12/17 13:00:24;;;;;;;24.92;14.77;;;12.60;76.40;;;;;;4999169;28;20058;-42
2021/12/17 13:02:53;;;;;;;24.77;15.10;;;12.60;76.40;;;;;;5001205;28;20053;-44
2021/12/17 13:05:23;;;;;;;26.08;14.52;;;12.70;76.50;;;;;;4996558;28;20050;-46
2021/12/17 13:07:54;;;;;;;24.73;13.55;;;12.60;76.50;;;;;;4996891;28;20046;-42
2021/12/17 13:10:29;;;;;;;27.07;12.97;;;12.60;76.60;;;;;;5010599;28;20041;-45
2021/12/17 13:13:03;;;;;;;23.35;13.25;;;12.60;76.70;;;;;;4999821;28;20128;-45
2021/12/17 13:15:41;;;;;;;21.08;12.02;;;12.60;76.80;;;;;;5005236;28;20453;-44
2021/12/17 13:24:08;;;;;;;23.67;14.07;;;12.60;76.80;;;;;;5001042;28;20045;-45
2021/12/17 13:26:36;;;;;;;22.50;13.15;;;12.70;76.90;;;;;;4998120;28;20045;-43
2021/12/17 13:29:13;;;;;;;19.90;12.82;;;12.70;76.90;;;;;;5009664;28;20045;-43
2021/12/17 13:31:52;;;;;;;20.40;12.35;;;12.70;76.80;;;;;;4993829;28;20050;-45
2021/12/17 13:34:29;;;;;;;17.13;11.50;;;12.70;76.80;;;;;;5007615;28;20042;-43
2021/12/17 13:37:32;;;;;;;22.40;12.55;;;12.70;76.90;;;;;;4998208;28;20529;-43
2021/12/17 13:40:00;;;;;;;20.73;12.13;;;12.70;76.90;;;;;;5000974;28;20829;-42
2021/12/17 13:42:31;;;;;;;22.30;12.55;;;12.70;76.80;;;;;;4997328;28;20549;-45
2021/12/17 13:45:00;;;;;;;22.25;12.65;;;12.70;76.80;;;;;;5010853;28;20528;-44
2021/12/17 13:47:34;;;;;;;21.50;12.20;;;12.70;76.80;;;;;;5003120;28;20498;-43
2021/12/17 13:50:12;;;;;;;19.60;12.55;;;12.70;76.80;;;;;;4997670;28;20863;-44
2021/12/17 13:52:55;;;;;;;19.80;11.85;;;12.70;76.80;;;;;;4996311;28;20037;-45
2021/12/17 13:55:30;;;;;;;20.42;10.70;;;12.80;76.80;;;;;;5007039;28;20115;-49
2021/12/17 13:58:00;;;;;;;19.92;11.05;;;12.70;76.70;;;;;;4998956;28;20092;-45
2021/12/17 14:00:33;;;;;;;20.95;11.23;;;12.80;76.70;;;;;;5004874;28;20042;-45
2021/12/17 14:03:01;;;;;;;18.90;11.32;;;12.80;76.70;;;;;;5001481;28;20034;-45
2021/12/17 14:05:40;;;;;;;17.02;10.82;;;12.80;76.60;;;;;;5011687;28;20412;-45
2021/12/17 14:08:17;;;;;;;19.52;10.65;;;12.70;76.60;;;;;;5001216;28;20053;-44
2021/12/17 14:10:44;;;;;;;16.23;9.98;;;12.70;76.60;;;;;;4995862;28;20096;-42
2021/12/17 14:13:25;;;;;;;16.27;9.18;;;12.70;76.70;;;;;;5007592;28;20501;-45
2021/12/17 14:16:02;;;;;;;13.27;8.52;;;12.70;76.80;;;;;;5004077;28;20061;-44
2021/12/17 14:18:30;;;;;;;15.63;9.85;;;12.80;76.80;;;;;;4997969;28;20061;-43
2021/12/17 14:21:01;;;;;;;14.23;8.15;;;12.80;76.90;;;;;;4987245;28;20041;-42
2021/12/17 14:23:29;;;;;;;16.02;8.50;;;12.80;76.90;;;;;;5004941;28;20049;-43
2021/12/17 14:25:58;;;;;;;17.40;8.52;;;12.80;76.80;;;;;;5007140;28;20231;-42
2021/12/17 14:28:35;;;;;;;15.68;9.10;;;12.80;76.60;;;;;;5000324;28;20101;-46
2021/12/17 14:31:09;;;;;;;19.02;10.95;;;12.80;76.60;;;;;;4999323;28;20045;-43
2021/12/17 14:33:36;;;;;;;14.65;9.43;;;12.70;76.60;;;;;;5000597;28;20049;-44
2021/12/17 14:36:03;;;;;;;16.48;8.52;;;12.70;76.60;;;;;;5002375;28;20112;-46
2021/12/17 14:38:41;;;;;;;15.55;8.65;;;12.80;76.60;;;;;;4987289;28;20039;-47
2021/12/17 14:41:17;;;;;;;12.80;8.52;;;12.80;76.70;;;;;;5000788;28;20081;-46
2021/12/17 14:44:10;;;;;;;13.07;8.48;;;12.70;76.60;;;;;;5003156;28;20096;-45
2021/12/17 14:46:59;;;;;;;12.52;7.45;;;12.70;76.70;;;;;;4998763;28;20042;-43
2021/12/17 15:00:49;;;;;;;12.60;8.57;;;12.70;76.60;;;;;;5006824;28;20497;-46
2021/12/17 15:05:53;;;;;;;15.07;7.53;;;12.70;76.50;;;;;;5000402;28;20049;-45
2021/12/17 15:08:20;;;;;;;15.25;8.40;;;12.70;76.60;;;;;;5006452;28;20046;-46
2021/12/17 15:10:47;;;;;;;14.20;9.15;;;12.70;76.60;;;;;;5018670;28;20053;-43
2021/12/17 15:13:14;;;;;;;15.73;8.85;;;12.70;76.60;;;;;;4994240;28;20043;-43
2021/12/17 15:15:42;;;;;;;13.70;9.18;;;12.70;76.60;;;;;;4993464;28;20088;-41
2021/12/17 15:18:14;;;;;;;13.45;8.77;;;12.60;76.50;;;;;;5001575;28;20046;-43
2021/12/17 15:20:51;;;;;;;12.63;7.75;;;12.60;76.50;;;;;;5007003;28;20566;-41
2021/12/17 15:23:18;;;;;;;12.98;8.05;;;12.60;76.40;;;;;;5002462;28;20233;-42
2021/12/17 15:25:46;;;;;;;12.63;7.65;;;12.60;76.40;;;;;;5000201;28;20050;-42
2021/12/17 15:28:16;;;;;;;13.40;8.38;;;12.60;76.50;;;;;;5000028;28;20100;-43
2021/12/17 15:30:46;;;;;;;11.98;8.68;;;12.60;76.50;;;;;;5009664;28;20052;-41
2021/12/17 15:33:14;;;;;;;13.30;8.20;;;12.60;76.50;;;;;;5001870;28;20533;-46
2021/12/17 15:35:42;;;;;;;11.27;8.15;;;12.60;76.40;;;;;;4998911;28;20046;-41
2021/12/17 15:38:10;;;;;;;13.70;8.40;;;12.50;76.50;;;;;;4999728;28;20497;-44
2021/12/17 15:40:39;;;;;;;12.82;8.43;;;12.50;76.40;;;;;;5000650;28;20080;-41
2021/12/17 15:43:07;;;;;;;11.85;7.68;;;12.50;76.80;;;;;;4994116;28;20046;-43
2021/12/17 15:45:37;;;;;;;12.55;8.63;;;12.50;76.50;;;;;;5005784;28;20041;-41
2021/12/17 15:48:05;;;;;;;12.07;8.48;;;12.50;76.50;;;;;;5001634;28;20660;-41
2021/12/17 15:50:52;;;;;;;11.18;7.60;;;12.50;76.50;;;;;;4987082;28;20081;-41
2021/12/17 15:53:19;;;;;;;11.23;7.53;;;12.50;76.50;;;;;;5004291;28;20042;-43
2021/12/17 15:55:46;;;;;;;11.05;7.10;;;12.50;76.40;;;;;;5008547;28;20104;-41
2021/12/17 15:58:13;;;;;;;10.68;6.50;;;12.50;76.40;;;;;;5010066;28;20073;-45
2021/12/17 16:00:47;;;;;;;8.82;5.68;;;12.50;76.40;;;;;;4994198;28;20038;-41
2021/12/17 16:03:15;;;;;;;9.60;6.65;;;12.50;76.30;;;;;;5000003;28;20046;-43
2021/12/17 16:05:42;;;;;;;11.88;7.10;;;12.40;76.20;;;;;;4999077;28;20041;-40